Time;durP1;ratioP1;P1;durP2;ratioP2;P2;SDS_P1;SDS_P2;PMS_P1;PMS_P2;Temp;Humidity;BMP_temperature;BMP_pressure;BME280_temperature;BME280_humidity;BME280_pressure;Samples;Min_cycle;Max_cycle;Signal;HPM_P1;HPM_P2
2021/07/15 00:01:57;;;;;;;19.85;16.15;;;;;;;19.25;94.72;101091.44;5089610;28;20413;-54
2021/07/15 00:04:25;;;;;;;19.35;15.57;;;;;;;19.29;94.50;101092.81;5088337;28;20069;-52
2021/07/15 00:06:52;;;;;;;19.95;16.90;;;;;;;19.18;95.25;101093.91;5093482;28;20040;-53
2021/07/15 00:09:19;;;;;;;19.60;16.52;;;;;;;19.12;95.14;101078.50;5094161;28;20093;-54
2021/07/15 00:11:48;;;;;;;17.48;14.95;;;;;;;19.19;95.25;101084.06;5093935;28;20048;-53
2021/07/15 00:14:18;;;;;;;18.20;15.20;;;;;;;19.15;95.46;101086.19;5092766;28;20506;-54
2021/07/15 00:16:45;;;;;;;19.42;15.00;;;;;;;19.15;95.34;101094.19;5092674;28;20052;-53
2021/07/15 00:19:15;;;;;;;18.65;14.82;;;;;;;19.15;95.62;101088.84;5092044;28;20048;-55
2021/07/15 00:21:42;;;;;;;17.42;13.77;;;;;;;19.14;95.77;101084.53;5093214;28;20043;-55
2021/07/15 00:24:08;;;;;;;17.88;13.65;;;;;;;19.14;95.52;101078.34;5094781;28;20058;-54
2021/07/15 00:26:35;;;;;;;18.80;13.02;;;;;;;19.16;95.13;101087.03;5095174;28;20040;-53
2021/07/15 00:29:04;;;;;;;16.85;12.43;;;;;;;19.03;95.81;101077.59;5092930;28;20487;-49
2021/07/15 00:31:30;;;;;;;16.30;13.10;;;;;;;19.00;96.27;101085.03;5089404;28;20048;-48
2021/07/15 00:33:57;;;;;;;17.33;13.02;;;;;;;19.06;96.36;101082.59;5093665;28;20127;-49
2021/07/15 00:36:24;;;;;;;16.23;12.00;;;;;;;19.05;95.76;101086.25;5094804;28;20036;-49
2021/07/15 00:38:51;;;;;;;15.25;11.65;;;;;;;19.12;96.10;101075.84;5094662;28;20036;-45
2021/07/15 00:41:18;;;;;;;12.73;10.05;;;;;;;19.07;95.61;101075.44;5094620;28;20052;-50
2021/07/15 00:43:45;;;;;;;13.23;10.20;;;;;;;19.05;96.07;101070.25;5094812;28;20044;-54
2021/07/15 00:46:11;;;;;;;13.60;11.13;;;;;;;19.00;96.06;101074.38;5094914;28;20089;-54
2021/07/15 00:48:39;;;;;;;14.43;10.88;;;;;;;18.98;95.79;101073.66;5094831;28;20507;-54
2021/07/15 00:51:06;;;;;;;13.30;10.98;;;;;;;19.00;95.99;101075.19;5091500;28;20044;-54
2021/07/15 00:53:34;;;;;;;15.43;11.23;;;;;;;19.01;96.25;101086.72;5073902;28;20043;-53
2021/07/15 00:56:01;;;;;;;13.50;10.98;;;;;;;18.98;96.53;101084.31;5090568;28;20048;-54
2021/07/15 00:58:30;;;;;;;15.05;11.73;;;;;;;19.05;96.19;101077.44;5090604;28;20051;-48
2021/07/15 01:00:56;;;;;;;15.82;11.32;;;;;;;19.07;95.73;101083.44;5090234;28;20114;-55
2021/07/15 01:03:23;;;;;;;14.50;11.38;;;;;;;19.01;95.92;101087.53;5090536;28;20051;-48
2021/07/15 01:05:53;;;;;;;15.35;11.98;;;;;;;19.07;95.71;101086.94;5091311;28;20036;-54
2021/07/15 01:08:21;;;;;;;16.83;12.52;;;;;;;19.05;95.77;101085.41;5093698;28;20052;-53
2021/07/15 01:10:52;;;;;;;14.52;12.05;;;;;;;19.03;95.32;101074.91;5091409;28;20048;-53
2021/07/15 01:13:38;;;;;;;17.08;12.35;;;;;;;18.96;95.81;101073.81;5093255;28;20375;-50
2021/07/15 01:16:30;;;;;;;16.85;12.88;;;;;;;18.98;96.41;101077.19;5093567;28;20036;-53
2021/07/15 01:19:00;;;;;;;17.33;13.02;;;;;;;18.90;96.45;101075.25;5091321;28;20056;-50
2021/07/15 01:22:05;;;;;;;17.88;13.35;;;;;;;18.84;96.76;101085.63;5091602;28;20051;-52
2021/07/15 01:24:37;;;;;;;17.75;13.77;;;;;;;18.82;96.80;101082.28;5091371;28;20502;-49
2021/07/15 01:27:26;;;;;;;18.20;13.32;;;;;;;18.74;97.46;101081.19;5093836;28;20077;-54
2021/07/15 01:30:10;;;;;;;18.63;13.35;;;;;;;18.81;97.18;101083.28;5094112;28;20502;-52
2021/07/15 01:32:48;;;;;;;17.95;13.27;;;;;;;18.75;97.10;101088.19;5093963;28;20052;-53
2021/07/15 01:35:17;;;;;;;19.15;13.38;;;;;;;18.77;97.42;101092.56;5090990;28;20048;-55
2021/07/15 01:37:53;;;;;;;15.63;12.02;;;;;;;18.70;97.30;101084.31;5090235;28;20055;-53
2021/07/15 01:40:25;;;;;;;16.73;12.30;;;;;;;18.66;97.54;101088.25;5092398;28;20048;-54
2021/07/15 01:42:56;;;;;;;16.08;11.80;;;;;;;18.68;97.25;101091.59;5075601;28;20376;-55
2021/07/15 01:45:24;;;;;;;14.13;11.02;;;;;;;18.72;97.04;101088.50;5092309;28;20495;-54
2021/07/15 01:47:52;;;;;;;15.52;11.18;;;;;;;18.65;97.05;101090.09;5092248;28;20093;-55
2021/07/15 01:50:19;;;;;;;14.27;10.48;;;;;;;18.65;96.74;101086.56;5075647;28;20407;-54
2021/07/15 01:52:47;;;;;;;14.40;10.98;;;;;;;18.66;97.11;101086.41;5075606;28;20097;-47
2021/07/15 01:55:14;;;;;;;14.27;11.25;;;;;;;18.70;96.59;101086.97;5092291;28;20081;-55
2021/07/15 01:57:41;;;;;;;16.15;11.60;;;;;;;18.68;96.50;101094.25;5092154;28;20139;-49
2021/07/15 02:00:08;;;;;;;16.52;11.88;;;;;;;18.65;97.09;101090.09;5091968;28;20700;-50
2021/07/15 02:02:36;;;;;;;16.48;12.52;;;;;;;18.64;97.05;101091.06;5090527;28;20379;-49
2021/07/15 02:05:05;;;;;;;17.80;13.70;;;;;;;18.59;97.06;101094.16;5091208;28;20044;-49
2021/07/15 02:07:33;;;;;;;20.65;14.68;;;;;;;18.60;96.89;101089.69;5091801;28;20056;-47
2021/07/15 02:10:01;;;;;;;19.83;14.70;;;;;;;18.58;96.71;101087.16;5093150;28;20387;-50
2021/07/15 02:12:28;;;;;;;20.70;15.25;;;;;;;18.58;97.08;101096.97;5091979;28;20036;-56
2021/07/15 02:14:55;;;;;;;19.17;14.65;;;;;;;18.57;96.85;101090.81;5093112;28;20090;-55
2021/07/15 02:17:22;;;;;;;21.45;15.85;;;;;;;18.61;97.14;101095.84;5091472;28;20490;-55
2021/07/15 02:19:49;;;;;;;23.33;15.73;;;;;;;18.57;97.44;101097.97;5093160;28;20069;-55
2021/07/15 02:22:17;;;;;;;23.52;16.48;;;;;;;18.53;97.52;101094.75;5093130;28;20043;-56
2021/07/15 02:24:46;;;;;;;21.77;15.13;;;;;;;18.53;97.40;101088.59;5090758;28;20491;-56
2021/07/15 02:27:14;;;;;;;21.55;16.40;;;;;;;18.51;97.39;101090.56;5089899;28;20044;-56
2021/07/15 02:29:41;;;;;;;23.00;15.30;;;;;;;18.58;97.53;101091.63;5089255;28;20490;-56
2021/07/15 02:32:11;;;;;;;24.13;15.95;;;;;;;18.61;97.48;101090.50;5091938;28;20039;-56
2021/07/15 02:35:03;;;;;;;20.83;14.50;;;;;;;18.61;96.79;101088.69;5089377;28;20715;-56
2021/07/15 02:37:34;;;;;;;22.45;15.18;;;;;;;18.54;97.07;101095.56;5090434;28;20059;-56
2021/07/15 02:40:09;;;;;;;22.08;15.18;;;;;;;18.53;96.96;101094.75;5090217;28;20047;-55
2021/07/15 02:42:39;;;;;;;18.73;13.75;;;;;;;18.58;96.77;101091.63;5090926;28;20062;-56
2021/07/15 02:45:07;;;;;;;21.92;15.43;;;;;;;18.62;96.61;101102.84;5090226;28;20401;-56
2021/07/15 02:47:34;;;;;;;21.40;14.40;;;;;;;18.54;96.82;101100.91;5090311;28;20051;-50
2021/07/15 02:50:01;;;;;;;23.85;14.25;;;;;;;18.52;97.45;101097.56;5088464;28;20105;-50
2021/07/15 02:52:27;;;;;;;20.92;14.77;;;;;;;18.52;97.50;101097.56;5092578;28;20039;-50
2021/07/15 02:54:54;;;;;;;23.65;15.07;;;;;;;18.48;97.69;101104.16;5092799;28;20101;-48
2021/07/15 02:57:31;;;;;;;20.48;14.63;;;;;;;18.45;97.07;101101.78;5092469;28;20051;-47
2021/07/15 03:00:12;;;;;;;21.52;14.27;;;;;;;18.47;97.14;101097.16;5091255;28;20058;-56
2021/07/15 03:02:59;;;;;;;21.90;14.40;;;;;;;18.51;97.49;101102.03;5074529;28;20056;-54
2021/07/15 03:05:58;;;;;;;18.20;13.95;;;;;;;18.52;97.28;101102.88;5088992;28;20051;-48
2021/07/15 03:08:30;;;;;;;18.35;12.63;;;;;;;18.53;96.99;101105.41;5090111;28;20044;-56
2021/07/15 03:10:58;;;;;;;16.85;12.98;;;;;;;18.51;96.94;101098.53;5090427;28;20047;-48
2021/07/15 03:13:26;;;;;;;17.00;12.00;;;;;;;18.53;96.57;101099.25;5092426;28;20036;-47
2021/07/15 03:15:53;;;;;;;15.52;11.60;;;;;;;18.41;96.91;101107.41;5092406;28;20475;-55
2021/07/15 03:18:21;;;;;;;17.88;12.13;;;;;;;18.47;96.80;101116.63;5091149;28;20055;-52
2021/07/15 03:20:48;;;;;;;14.15;10.18;;;;;;;18.47;96.55;101108.63;5092488;28;20046;-55
2021/07/15 03:23:20;;;;;;;13.48;10.02;;;;;;;18.47;96.47;101113.13;5092506;28;20653;-48
2021/07/15 03:25:49;;;;;;;13.73;10.83;;;;;;;18.49;96.74;101116.50;5090990;28;20503;-46
2021/07/15 03:28:19;;;;;;;14.02;9.25;;;;;;;18.50;96.19;101104.84;5091142;28;20044;-50
2021/07/15 03:30:46;;;;;;;14.00;10.25;;;;;;;18.49;96.25;101108.50;5092361;28;20046;-56
2021/07/15 03:33:14;;;;;;;15.10;9.75;;;;;;;18.51;96.07;101111.84;5090915;28;20131;-56
2021/07/15 03:35:41;;;;;;;12.43;9.02;;;;;;;18.50;96.44;101115.50;5088908;28;20080;-55
2021/07/15 03:38:09;;;;;;;13.98;9.73;;;;;;;18.50;96.04;101107.50;5090881;28;20083;-56
2021/07/15 03:40:36;;;;;;;14.85;8.60;;;;;;;18.38;96.75;101123.66;5094719;28;20406;-56
2021/07/15 03:43:03;;;;;;;11.88;8.60;;;;;;;18.37;96.31;101119.31;5077963;28;20501;-56
2021/07/15 03:45:30;;;;;;;12.35;8.98;;;;;;;18.33;96.96;101114.44;5077845;28;20450;-46
2021/07/15 03:47:58;;;;;;;13.68;8.80;;;;;;;18.35;96.89;101134.59;5094726;28;20040;-56
2021/07/15 03:50:28;;;;;;;12.85;8.95;;;;;;;18.35;96.55;101129.28;5094721;28;20106;-55
2021/07/15 03:52:58;;;;;;;12.43;8.38;;;;;;;18.39;96.42;101130.69;5094881;28;20143;-54
2021/07/15 03:55:27;;;;;;;14.27;8.57;;;;;;;18.42;96.99;101133.03;5078117;28;20098;-53
2021/07/15 03:57:55;;;;;;;14.00;9.23;;;;;;;18.41;96.66;101128.69;5094624;28;20051;-53
2021/07/15 04:00:24;;;;;;;12.05;8.48;;;;;;;18.39;96.83;101125.34;5094383;28;20578;-53
2021/07/15 04:02:58;;;;;;;13.13;8.43;;;;;;;18.34;96.85;101114.28;5090650;28;20040;-46
2021/07/15 04:05:27;;;;;;;10.93;7.35;;;;;;;18.38;96.97;101114.84;5092306;28;20044;-49
2021/07/15 04:07:55;;;;;;;11.32;7.78;;;;;;;18.42;97.08;101121.56;5094258;28;20431;-47
2021/07/15 04:10:23;;;;;;;12.07;6.80;;;;;;;18.42;96.57;101119.72;5094255;28;20454;-47
2021/07/15 04:12:51;;;;;;;11.15;7.05;;;;;;;18.33;96.99;101119.75;5094329;28;20046;-46
2021/07/15 04:15:20;;;;;;;11.27;6.80;;;;;;;18.35;97.37;101134.59;5094233;28;20131;-50
2021/07/15 04:17:58;;;;;;;9.80;6.15;;;;;;;18.30;97.55;101131.53;5095142;28;20036;-49
2021/07/15 04:20:26;;;;;;;8.80;5.88;;;;;;;18.32;97.52;101140.19;5093948;28;20081;-48
2021/07/15 04:22:56;;;;;;;9.48;5.65;;;;;;;18.37;97.25;101135.28;5060548;28;20040;-53
2021/07/15 04:25:24;;;;;;;9.20;5.55;;;;;;;18.34;97.65;101132.94;5074998;28;20058;-45
2021/07/15 04:27:56;;;;;;;8.15;5.13;;;;;;;18.32;97.39;101144.69;5092368;28;20112;-55
2021/07/15 04:30:23;;;;;;;8.88;5.78;;;;;;;18.32;97.82;101147.34;5094022;28;20044;-54
2021/07/15 04:32:52;;;;;;;8.20;5.10;;;;;;;18.37;97.51;101143.28;5095358;28;20093;-54
2021/07/15 04:35:20;;;;;;;9.05;5.30;;;;;;;18.35;97.66;101145.25;5095042;28;20113;-54
2021/07/15 04:37:48;;;;;;;9.77;6.05;;;;;;;18.32;97.68;101156.19;5095179;28;20394;-54
2021/07/15 04:40:21;;;;;;;10.80;6.03;;;;;;;18.27;98.01;101161.09;5093744;28;20043;-53
2021/07/15 04:42:51;;;;;;;12.88;7.32;;;;;;;18.20;98.64;101162.63;5091271;28;20418;-55
2021/07/15 04:45:18;;;;;;;11.70;7.05;;;;;;;18.29;98.41;101160.97;5091358;28;20649;-49
2021/07/15 04:47:46;;;;;;;13.00;8.45;;;;;;;18.16;98.63;101155.91;5093477;28;20044;-50
2021/07/15 04:50:15;;;;;;;14.15;8.75;;;;;;;18.09;99.60;101166.28;5094004;28;20487;-46
2021/07/15 04:52:44;;;;;;;15.23;9.30;;;;;;;18.14;99.41;101158.72;5093395;28;20169;-54
2021/07/15 04:55:12;;;;;;;13.77;8.80;;;;;;;18.13;99.50;101161.53;5076540;28;20107;-54
2021/07/15 04:57:39;;;;;;;16.92;10.57;;;;;;;18.14;99.43;101160.56;5094246;28;20048;-54
2021/07/15 05:00:12;;;;;;;16.25;10.88;;;;;;;18.21;99.37;101174.97;5089163;28;20047;-54
2021/07/15 05:02:40;;;;;;;17.30;11.20;;;;;;;18.18;99.64;101160.13;5092078;28;20050;-51
2021/07/15 05:05:09;;;;;;;19.33;12.48;;;;;;;18.18;99.69;101168.09;5094442;28;20044;-47
2021/07/15 05:07:38;;;;;;;18.92;10.98;;;;;;;18.18;99.47;101173.44;5092929;28;20081;-50
2021/07/15 05:10:06;;;;;;;17.63;11.73;;;;;;;18.14;99.71;101171.22;5094335;28;20380;-50
2021/07/15 05:12:34;;;;;;;21.30;12.07;;;;;;;18.12;100.00;101173.16;5093399;28;20078;-48
2021/07/15 05:15:03;;;;;;;19.65;11.07;;;;;;;18.21;99.67;101182.97;5088953;28;20051;-48
2021/07/15 05:17:31;;;;;;;21.13;11.50;;;;;;;18.17;99.76;101179.72;5093191;28;20544;-49
2021/07/15 05:19:59;;;;;;;20.92;12.00;;;;;;;18.13;99.96;101177.50;5094229;28;20086;-49
2021/07/15 05:22:26;;;;;;;22.35;13.50;;;;;;;18.09;100.00;101179.59;5093777;28;20105;-50
2021/07/15 05:24:53;;;;;;;18.85;11.80;;;;;;;18.11;100.00;101190.97;5090912;28;20098;-47
2021/07/15 05:27:20;;;;;;;19.15;12.13;;;;;;;18.15;100.00;101194.19;5091265;28;20491;-44
2021/07/15 05:29:46;;;;;;;18.98;11.95;;;;;;;18.15;99.91;101187.03;5092350;28;20055;-47
2021/07/15 05:32:13;;;;;;;18.02;11.20;;;;;;;18.21;99.82;101198.94;5093951;28;20048;-50
2021/07/15 05:34:40;;;;;;;19.65;12.65;;;;;;;18.22;99.74;101200.63;5093233;28;20138;-48
2021/07/15 05:37:07;;;;;;;20.45;11.82;;;;;;;18.30;99.09;101207.91;5093795;28;20032;-49
2021/07/15 05:39:36;;;;;;;18.95;12.07;;;;;;;18.27;99.22;101209.03;5093704;28;20044;-44
2021/07/15 05:42:05;;;;;;;19.30;11.68;;;;;;;18.22;99.31;101204.09;5093543;28;20402;-50
2021/07/15 05:44:32;;;;;;;21.40;12.55;;;;;;;18.22;99.06;101195.28;5093745;28;20063;-50
2021/07/15 05:46:59;;;;;;;20.85;12.45;;;;;;;18.22;99.41;101209.44;5075586;28;20044;-48
2021/07/15 05:49:34;;;;;;;26.17;13.93;;;;;;;18.11;99.54;101206.94;5092161;28;20040;-48
2021/07/15 05:52:05;;;;;;;23.23;14.48;;;;;;;18.13;99.93;101210.28;5093582;28;20545;-45
2021/07/15 05:54:32;;;;;;;22.20;13.80;;;;;;;18.16;99.95;101211.81;5093634;28;20135;-50
2021/07/15 05:56:59;;;;;;;23.40;15.38;;;;;;;18.10;99.71;101207.06;5093375;28;20548;-55
2021/07/15 05:59:25;;;;;;;25.25;15.10;;;;;;;18.18;99.98;101208.03;5092299;28;20097;-54
2021/07/15 06:01:52;;;;;;;26.27;15.75;;;;;;;18.16;99.80;101209.16;5090806;28;20059;-54
2021/07/15 06:04:20;;;;;;;31.08;18.13;;;;;;;18.17;99.88;101211.66;5090237;28;20122;-54
2021/07/15 06:06:47;;;;;;;27.50;16.58;;;;;;;18.18;99.85;101213.34;5091954;28;20048;-49
2021/07/15 06:09:13;;;;;;;30.50;17.65;;;;;;;18.17;99.95;101224.16;5090795;28;20097;-48
2021/07/15 06:11:40;;;;;;;29.50;17.85;;;;;;;18.12;100.00;101226.38;5089443;28;20559;-48
2021/07/15 06:14:07;;;;;;;33.90;18.48;;;;;;;18.16;100.00;101233.09;5092412;28;20375;-49
2021/07/15 06:16:34;;;;;;;30.52;17.92;;;;;;;18.15;100.00;101224.28;5093097;28;20048;-45
2021/07/15 06:19:02;;;;;;;33.63;18.13;;;;;;;18.11;100.00;101238.88;5092801;28;20105;-49
2021/07/15 06:21:29;;;;;;;33.80;19.25;;;;;;;18.05;100.00;101226.97;5092702;28;20040;-46
2021/07/15 06:23:56;;;;;;;30.42;18.52;;;;;;;18.12;100.00;101235.22;5091924;28;20048;-47
2021/07/15 06:26:23;;;;;;;29.13;17.90;;;;;;;18.17;99.97;101237.47;5092998;28;20048;-45
2021/07/15 06:28:50;;;;;;;28.63;17.38;;;;;;;18.19;99.91;101238.16;5091638;28;20127;-53
2021/07/15 06:31:18;;;;;;;30.35;17.52;;;;;;;18.24;99.80;101233.25;5091377;28;20052;-54
2021/07/15 06:33:45;;;;;;;29.23;17.40;;;;;;;18.16;99.92;101246.41;5089028;28;20062;-52
2021/07/15 06:36:12;;;;;;;33.55;17.65;;;;;;;18.18;100.00;101239.97;5091096;28;20055;-51
2021/07/15 06:38:39;;;;;;;29.20;17.17;;;;;;;18.13;99.68;101244.88;5090199;28;20044;-52
2021/07/15 06:41:08;;;;;;;29.00;16.73;;;;;;;18.21;99.62;101249.50;5089592;28;20067;-47
2021/07/15 06:43:39;;;;;;;22.70;16.23;;;;;;;18.17;99.47;101254.25;5092387;28;20391;-52
2021/07/15 06:46:06;;;;;;;25.50;15.38;;;;;;;18.18;99.46;101257.78;5091336;28;20039;-53
2021/07/15 06:48:33;;;;;;;24.00;14.20;;;;;;;18.20;99.20;101258.47;5091317;28;20056;-53
2021/07/15 06:51:02;;;;;;;20.05;12.32;;;;;;;18.18;99.06;101258.59;5088970;28;20044;-54
2021/07/15 06:53:29;;;;;;;20.15;11.48;;;;;;;18.19;99.05;101273.59;5090226;28;20048;-54
2021/07/15 06:55:58;;;;;;;18.00;10.80;;;;;;;18.24;98.88;101267.84;5092553;28;20051;-55
2021/07/15 06:58:28;;;;;;;14.70;9.05;;;;;;;18.18;98.30;101273.75;5092633;28;20093;-49
2021/07/15 07:00:56;;;;;;;13.35;7.85;;;;;;;18.29;98.57;101272.78;5091209;28;20391;-49
2021/07/15 07:03:24;;;;;;;10.75;7.65;;;;;;;18.23;97.94;101277.66;5092355;28;20364;-45
2021/07/15 07:05:54;;;;;;;14.75;8.13;;;;;;;18.33;97.70;101277.66;5091936;28;20521;-48
2021/07/15 07:08:21;;;;;;;13.45;8.25;;;;;;;18.32;98.49;101267.16;5088224;28;20036;-47
2021/07/15 07:10:48;;;;;;;12.93;7.65;;;;;;;18.37;98.49;101272.91;5086179;28;20055;-47
2021/07/15 07:13:14;;;;;;;13.65;7.78;;;;;;;18.39;98.58;101276.25;5092232;28;20044;-46
2021/07/15 07:15:42;;;;;;;11.05;6.70;;;;;;;18.39;98.50;101279.78;5097206;28;20079;-55
2021/07/15 07:18:08;;;;;;;11.43;7.22;;;;;;;18.38;97.98;101280.75;5096666;28;20448;-55
2021/07/15 07:20:35;;;;;;;10.52;6.55;;;;;;;18.41;98.10;101283.13;5092752;28;20055;-55
2021/07/15 07:23:04;;;;;;;11.15;7.50;;;;;;;18.48;98.15;101283.41;5092468;28;20127;-55
2021/07/15 07:25:31;;;;;;;13.02;8.63;;;;;;;18.45;98.00;101277.50;5095121;28;20426;-55
2021/07/15 07:27:58;;;;;;;14.98;7.85;;;;;;;18.40;98.07;101281.44;5094267;28;20036;-55
2021/07/15 07:30:25;;;;;;;13.02;8.02;;;;;;;18.43;97.70;101296.28;5092756;28;20149;-52
2021/07/15 07:32:52;;;;;;;14.57;8.77;;;;;;;18.40;98.12;101296.59;5095002;28;20048;-55
2021/07/15 07:35:19;;;;;;;14.63;9.38;;;;;;;18.40;97.66;101296.59;5096163;28;20048;-55
2021/07/15 07:37:47;;;;;;;14.88;8.88;;;;;;;18.46;97.82;101296.03;5095815;28;20040;-56
2021/07/15 07:40:14;;;;;;;16.40;9.55;;;;;;;18.39;97.50;101298.41;5094885;28;20097;-49
2021/07/15 07:42:42;;;;;;;20.65;11.60;;;;;;;18.41;97.08;101309.75;5095483;28;20448;-49
2021/07/15 07:45:10;;;;;;;17.98;11.15;;;;;;;18.42;97.00;101319.44;5095602;28;20454;-46
2021/07/15 07:47:37;;;;;;;22.90;13.15;;;;;;;18.24;97.97;101307.78;5095543;28;20367;-50
2021/07/15 07:50:06;;;;;;;20.15;12.45;;;;;;;18.29;98.17;101313.53;5095915;28;20051;-50
2021/07/15 07:52:34;;;;;;;24.45;12.43;;;;;;;18.28;97.66;101314.50;5095419;28;20051;-50
2021/07/15 07:55:01;;;;;;;19.58;12.93;;;;;;;18.32;98.42;101320.41;5095626;28;20094;-50
2021/07/15 07:57:33;;;;;;;21.92;12.55;;;;;;;18.34;98.00;101313.97;5095799;28;20097;-50
2021/07/15 08:00:01;;;;;;;24.27;12.68;;;;;;;18.34;98.01;101316.63;5095590;28;20052;-48
2021/07/15 08:02:27;;;;;;;17.23;10.65;;;;;;;18.38;97.54;101320.69;5095531;28;20101;-48
2021/07/15 08:04:54;;;;;;;21.27;11.02;;;;;;;18.45;97.49;101314.78;5095823;28;20537;-51
2021/07/15 08:07:21;;;;;;;19.95;11.52;;;;;;;18.40;97.93;101315.22;5077235;28;20039;-56
2021/07/15 08:09:48;;;;;;;16.05;8.95;;;;;;;18.44;97.77;101319.28;5092595;28;20044;-56
2021/07/15 08:12:16;;;;;;;15.63;8.75;;;;;;;18.47;96.63;101319.00;5094097;28;20441;-56
2021/07/15 08:14:44;;;;;;;12.73;7.80;;;;;;;18.43;96.61;101328.25;5092278;28;20044;-56
2021/07/15 08:17:11;;;;;;;17.13;8.70;;;;;;;18.50;97.48;101323.19;5091073;28;20056;-46
2021/07/15 08:19:38;;;;;;;12.48;8.13;;;;;;;18.57;96.94;101333.16;5093788;28;20388;-46
2021/07/15 08:22:05;;;;;;;12.77;7.03;;;;;;;18.60;96.57;101337.38;5094948;28;20502;-51
2021/07/15 08:24:32;;;;;;;14.18;6.88;;;;;;;18.68;96.63;101326.84;5093516;28;20048;-52
2021/07/15 08:26:59;;;;;;;12.90;7.15;;;;;;;18.77;96.46;101334.97;5094015;28;20043;-56
2021/07/15 08:29:26;;;;;;;11.27;5.95;;;;;;;18.79;95.63;101330.34;5094079;28;20043;-56
2021/07/15 08:31:53;;;;;;;11.20;5.85;;;;;;;18.72;94.79;101333.59;5094077;28;20427;-48
2021/07/15 08:34:20;;;;;;;10.02;5.95;;;;;;;18.85;95.19;101338.59;5095077;28;20117;-50
2021/07/15 08:36:47;;;;;;;9.60;5.75;;;;;;;18.91;94.95;101345.25;5094939;28;20494;-46
2021/07/15 08:39:14;;;;;;;10.48;6.10;;;;;;;18.88;95.28;101342.84;5093626;28;20052;-50
2021/07/15 08:41:43;;;;;;;12.75;7.40;;;;;;;18.71;94.62;101342.53;5094587;28;20044;-48
2021/07/15 08:44:13;;;;;;;13.73;7.25;;;;;;;18.66;94.65;101350.13;5093807;28;20055;-57
2021/07/15 08:46:43;;;;;;;14.60;8.45;;;;;;;18.67;94.55;101351.81;5093699;28;20063;-56
2021/07/15 08:49:11;;;;;;;13.15;8.40;;;;;;;18.63;94.96;101355.72;5094925;28;20044;-56
2021/07/15 08:51:38;;;;;;;13.38;7.97;;;;;;;18.65;95.24;101352.91;5093735;28;20052;-56
2021/07/15 08:54:05;;;;;;;15.98;8.38;;;;;;;18.62;95.32;101364.69;5092350;28;20137;-56
2021/07/15 08:56:38;;;;;;;15.50;8.85;;;;;;;18.49;95.65;101364.16;5092484;28;20067;-56
2021/07/15 08:59:07;;;;;;;20.30;9.43;;;;;;;18.57;96.05;101370.44;5094582;28;20048;-56
2021/07/15 09:01:35;;;;;;;19.08;10.38;;;;;;;18.37;95.65;101382.91;5094539;28;20046;-57
2021/07/15 09:04:03;;;;;;;22.25;10.85;;;;;;;18.39;96.15;101382.75;5094112;28;20431;-56
2021/07/15 09:06:31;;;;;;;22.52;10.85;;;;;;;18.38;96.38;101383.75;5092374;28;20147;-56
2021/07/15 09:08:58;;;;;;;22.08;10.82;;;;;;;18.51;96.63;101380.81;5091874;28;20452;-56
2021/07/15 09:11:25;;;;;;;24.33;11.77;;;;;;;18.49;95.97;101380.97;5094418;28;20513;-56
2021/07/15 09:13:52;;;;;;;20.88;11.27;;;;;;;18.57;96.01;101377.63;5092997;28;20042;-56
2021/07/15 09:16:20;;;;;;;18.48;10.90;;;;;;;18.61;95.89;101380.81;5093357;28;20047;-56
2021/07/15 09:19:08;;;;;;;13.75;7.97;;;;;;;18.55;95.48;101384.88;5090196;28;20044;-48
2021/07/15 09:21:39;;;;;;;14.40;8.10;;;;;;;18.51;96.05;101399.47;5093759;28;20143;-44
2021/07/15 09:24:31;;;;;;;15.40;8.90;;;;;;;18.61;96.19;101408.31;5094048;28;20055;-50
2021/07/15 09:27:19;;;;;;;15.53;8.50;;;;;;;18.54;95.77;101405.38;5094181;28;20044;-54
2021/07/15 09:30:08;;;;;;;14.18;9.02;;;;;;;18.45;95.47;101403.53;5090643;28;20285;-46
2021/07/15 09:32:59;;;;;;;17.77;9.25;;;;;;;18.45;96.14;101400.00;5091495;28;20040;-55
2021/07/15 09:35:35;;;;;;;19.77;10.02;;;;;;;18.45;96.01;101403.53;5093893;28;20040;-55
2021/07/15 09:38:17;;;;;;;16.85;9.18;;;;;;;18.49;96.29;101406.75;5093301;28;20048;-55
2021/07/15 09:40:51;;;;;;;20.98;10.70;;;;;;;18.53;96.47;101401.00;5093231;28;20055;-53
2021/07/15 09:43:20;;;;;;;17.92;10.68;;;;;;;18.57;96.11;101409.56;5092513;28;20043;-52
2021/07/15 09:45:49;;;;;;;17.35;10.40;;;;;;;18.56;96.53;101414.03;5093570;28;20421;-55
2021/07/15 09:48:21;;;;;;;18.23;10.80;;;;;;;18.56;96.09;101410.53;5092177;28;20487;-52
2021/07/15 09:50:50;;;;;;;24.55;11.07;;;;;;;18.58;96.06;101413.91;5093650;28;20048;-50
2021/07/15 09:53:18;;;;;;;17.65;9.68;;;;;;;18.58;96.39;101422.75;5089903;28;20586;-55
2021/07/15 09:55:46;;;;;;;21.10;11.88;;;;;;;18.48;95.81;101421.06;5090798;28;20036;-55
2021/07/15 09:58:14;;;;;;;18.67;10.68;;;;;;;18.46;95.83;101415.00;5091958;28;20109;-55
2021/07/15 10:00:45;;;;;;;21.02;11.27;;;;;;;18.39;96.34;101414.72;5093411;28;20055;-55
2021/07/15 10:03:14;;;;;;;22.75;12.27;;;;;;;18.42;95.29;101417.13;5093139;28;20052;-56
2021/07/15 10:05:50;;;;;;;21.35;11.35;;;;;;;18.39;95.64;101410.25;5092004;28;20394;-56
2021/07/15 10:08:27;;;;;;;21.65;12.05;;;;;;;18.37;96.12;101424.66;5093446;28;20064;-48
2021/07/15 10:10:55;;;;;;;26.15;11.55;;;;;;;18.42;96.10;101425.09;5093218;28;20046;-50
2021/07/15 10:13:24;;;;;;;19.23;11.55;;;;;;;18.47;95.70;101428.19;5091831;28;20071;-56
2021/07/15 10:15:52;;;;;;;22.52;10.98;;;;;;;18.48;96.73;101426.38;5089792;28;20568;-55
2021/07/15 10:18:54;;;;;;;19.55;11.65;;;;;;;18.39;96.51;101436.00;5090253;28;20556;-55
2021/07/15 10:21:26;;;;;;;19.83;10.38;;;;;;;18.55;95.72;101438.16;5050426;28;20053;-56
2021/07/15 10:23:53;;;;;;;20.70;10.80;;;;;;;18.51;95.33;101439.41;5086437;28;20135;-55
2021/07/15 10:26:28;;;;;;;17.02;9.93;;;;;;;18.55;95.57;101438.16;5092810;28;20051;-55
2021/07/15 10:28:55;;;;;;;18.58;10.05;;;;;;;18.54;95.68;101436.47;5092879;28;20043;-55
2021/07/15 10:31:23;;;;;;;18.08;10.10;;;;;;;18.48;94.95;101445.84;5092862;28;20055;-56
2021/07/15 10:33:52;;;;;;;18.45;9.93;;;;;;;18.45;94.93;101438.13;5091286;28;20050;-52
2021/07/15 10:36:20;;;;;;;19.58;10.60;;;;;;;18.39;95.24;101439.53;5092968;28;20495;-48
2021/07/15 10:38:49;;;;;;;18.15;9.60;;;;;;;18.51;96.04;101444.72;5074724;28;20085;-45
2021/07/15 10:41:21;;;;;;;16.30;9.52;;;;;;;18.43;95.37;101442.75;5091457;28;20450;-50
2021/07/15 10:43:49;;;;;;;16.50;10.07;;;;;;;18.41;95.72;101448.22;5091318;28;20114;-49
2021/07/15 10:46:16;;;;;;;14.77;9.13;;;;;;;18.50;95.29;101448.38;5092748;28;20046;-50
2021/07/15 10:48:46;;;;;;;15.52;8.63;;;;;;;18.54;94.62;101452.44;5091544;28;20047;-51
2021/07/15 10:51:13;;;;;;;15.05;8.82;;;;;;;18.48;94.95;101447.69;5092314;28;20062;-45
2021/07/15 10:53:41;;;;;;;13.73;8.57;;;;;;;18.47;95.73;101451.31;5092223;28;20051;-55
2021/07/15 10:56:09;;;;;;;13.65;8.25;;;;;;;18.50;95.05;101453.69;5091352;28;20055;-56
2021/07/15 10:58:44;;;;;;;17.08;8.98;;;;;;;18.55;95.16;101456.78;5091255;28;20044;-50
2021/07/15 11:01:32;;;;;;;12.10;7.63;;;;;;;18.52;93.98;101457.91;5092506;28;20052;-49
2021/07/15 11:04:16;;;;;;;12.65;8.05;;;;;;;18.55;94.81;101454.13;5090818;28;20147;-51
2021/07/15 11:06:45;;;;;;;;;;;;;;;18.62;94.62;101462.41;5092784;28;20059;-48
2021/07/15 11:09:36;;;;;;;9.93;6.30;;;;;;;18.66;94.23;101455.84;5091934;28;19963;-47
2021/07/15 11:12:36;;;;;;;8.55;5.30;;;;;;;18.75;94.40;101460.34;5092284;28;20048;-48
2021/07/15 11:15:10;;;;;;;8.90;6.03;;;;;;;18.70;94.35;101463.41;5092238;28;20113;-46
2021/07/15 11:17:47;;;;;;;9.27;5.63;;;;;;;18.74;94.59;101462.13;5092503;28;20382;-49
2021/07/15 11:20:30;;;;;;;8.10;5.22;;;;;;;18.61;93.61;101458.06;5092434;28;20060;-56
2021/07/15 11:23:18;;;;;;;10.25;5.72;;;;;;;18.61;93.81;101458.06;5074575;28;20048;-56
2021/07/15 11:25:45;;;;;;;10.05;5.13;;;;;;;18.71;93.55;101467.75;5090749;28;20402;-56